Time;durP1;ratioP1;P1;durP2;ratioP2;P2;SDS_P1;SDS_P2;PMS_P1;PMS_P2;Temp;Humidity;BMP_temperature;BMP_pressure;BME280_temperature;BME280_humidity;BME280_pressure;Samples;Min_cycle;Max_cycle;Signal;HPM_P1;HPM_P2
2021/12/09 00:00:55;;;;;;;5.65;2.88;;;;;;;3.69;100.00;95369.91;5094114;28;20444;-66
2021/12/09 00:03:21;;;;;;;4.10;2.65;;;;;;;3.70;100.00;95360.34;5093931;28;20866;-66
2021/12/09 00:05:47;;;;;;;4.05;2.65;;;;;;;3.70;100.00;95362.94;5093191;28;20432;-66
2021/12/09 00:08:13;;;;;;;6.10;2.72;;;;;;;3.63;100.00;95360.44;5093719;28;20789;-66
2021/12/09 00:10:39;;;;;;;3.38;2.40;;;;;;;3.62;100.00;95361.44;5091775;28;20398;-66
2021/12/09 00:13:06;;;;;;;4.03;2.40;;;;;;;3.46;100.00;95364.63;5092330;28;20813;-67
2021/12/09 00:15:32;;;;;;;3.50;2.28;;;;;;;3.46;100.00;95358.63;5075565;28;20406;-67
2021/12/09 00:17:58;;;;;;;2.75;2.15;;;;;;;3.27;100.00;95358.66;5093728;28;20439;-66
2021/12/09 00:20:24;;;;;;;5.57;2.20;;;;;;;3.15;100.00;95357.78;5093427;28;20480;-66
2021/12/09 00:22:49;;;;;;;3.55;2.30;;;;;;;3.22;100.00;95363.69;5093293;28;20402;-66
2021/12/09 00:25:15;;;;;;;2.97;2.00;;;;;;;3.26;100.00;95374.41;5093250;28;20392;-66
2021/12/09 00:27:42;;;;;;;3.10;2.00;;;;;;;3.32;100.00;95364.00;5093359;28;20945;-66
2021/12/09 00:30:09;;;;;;;4.43;2.00;;;;;;;3.25;100.00;95375.41;5093413;28;20421;-67
2021/12/09 00:32:35;;;;;;;3.97;1.95;;;;;;;3.17;100.00;95376.50;5085003;28;20426;-66
2021/12/09 00:35:02;;;;;;;2.50;1.75;;;;;;;3.01;100.00;95378.84;5093254;28;20951;-67
2021/12/09 00:37:35;;;;;;;4.25;2.30;;;;;;;2.89;100.00;95371.81;5092787;28;20389;-66
2021/12/09 00:40:00;;;;;;;5.50;2.28;;;;;;;2.70;100.00;95383.09;5093732;28;20393;-66
2021/12/09 00:42:26;;;;;;;5.03;2.10;;;;;;;2.67;100.00;95378.38;5093269;28;20765;-67
2021/12/09 00:44:54;;;;;;;4.55;2.03;;;;;;;2.65;100.00;95390.72;5092826;28;20408;-66
2021/12/09 00:47:20;;;;;;;3.45;2.20;;;;;;;2.73;100.00;95387.06;5092593;28;20386;-67
2021/12/09 00:49:46;;;;;;;3.35;2.03;;;;;;;2.69;100.00;95397.03;5092810;28;20421;-66
2021/12/09 00:52:12;;;;;;;5.63;2.28;;;;;;;2.81;100.00;95384.19;5093044;28;20949;-66
2021/12/09 00:54:39;;;;;;;5.55;2.08;;;;;;;2.79;100.00;95386.19;5092697;28;20390;-66
2021/12/09 00:57:05;;;;;;;3.75;2.00;;;;;;;2.85;100.00;95393.13;5092857;28;20414;-66
2021/12/09 00:59:31;;;;;;;2.87;1.90;;;;;;;2.67;100.00;95393.88;5092234;28;20960;-67
2021/12/09 01:01:57;;;;;;;4.13;1.87;;;;;;;2.75;100.00;95395.41;5093929;28;20188;-66
2021/12/09 01:04:22;;;;;;;3.63;2.00;;;;;;;2.79;100.00;95391.38;5093440;28;20176;-66
2021/12/09 01:06:49;;;;;;;2.13;1.80;;;;;;;2.74;100.00;95404.16;5093288;28;20211;-66
2021/12/09 01:09:14;;;;;;;4.93;1.67;;;;;;;2.86;100.00;95394.69;5093974;28;20180;-66
2021/12/09 01:11:40;;;;;;;4.33;2.17;;;;;;;2.79;100.00;95399.13;5093580;28;20183;-66
2021/12/09 01:14:05;;;;;;;4.60;1.77;;;;;;;2.74;100.00;95410.13;5093336;28;20214;-66
2021/12/09 01:16:31;;;;;;;2.87;1.90;;;;;;;2.66;100.00;95407.81;5093117;28;20230;-66
2021/12/09 01:18:57;;;;;;;2.10;1.60;;;;;;;2.73;100.00;95405.19;5093604;28;20184;-66
2021/12/09 01:21:22;;;;;;;3.97;2.20;;;;;;;2.57;100.00;95416.03;5093090;28;20228;-66
2021/12/09 01:23:47;;;;;;;7.30;2.03;;;;;;;2.46;100.00;95404.56;5093071;28;20556;-66
2021/12/09 01:26:13;;;;;;;2.53;1.70;;;;;;;2.43;100.00;95412.75;5093098;28;20276;-66
2021/12/09 01:28:50;;;;;;;3.10;1.90;;;;;;;2.55;100.00;95412.88;5092895;28;20177;-66
2021/12/09 01:31:25;;;;;;;2.77;2.00;;;;;;;2.58;100.00;95422.78;5093843;28;20177;-66
2021/12/09 01:33:53;;;;;;;4.23;2.20;;;;;;;2.69;100.00;95416.94;5093062;28;20172;-66
2021/12/09 01:36:19;;;;;;;4.40;2.30;;;;;;;2.70;100.00;95431.44;5091920;28;20201;-68
2021/12/09 01:38:44;;;;;;;2.13;1.80;;;;;;;2.56;100.00;95430.78;5093453;28;20181;-66
2021/12/09 01:41:10;;;;;;;3.17;1.80;;;;;;;2.69;100.00;95430.66;5093302;28;20587;-66
2021/12/09 01:43:35;;;;;;;2.53;1.80;;;;;;;2.76;100.00;95435.78;5093213;28;20192;-67
2021/12/09 01:46:04;;;;;;;6.27;2.00;;;;;;;2.63;100.00;95428.91;5093403;28;20483;-66
2021/12/09 01:48:29;;;;;;;4.43;2.23;;;;;;;2.70;100.00;95427.06;5093112;28;20212;-66
2021/12/09 01:50:54;;;;;;;4.17;2.57;;;;;;;2.58;100.00;95433.13;5093250;28;20215;-68
2021/12/09 01:53:20;;;;;;;7.63;3.03;;;;;;;2.63;100.00;95426.31;5092765;28;20522;-67
2021/12/09 01:55:45;;;;;;;5.57;2.63;;;;;;;2.72;100.00;95419.13;5092731;28;20684;-66
2021/12/09 01:58:11;;;;;;;6.27;2.70;;;;;;;2.79;100.00;95405.09;5093098;28;20177;-66
2021/12/09 02:00:38;;;;;;;4.47;3.00;;;;;;;2.69;100.00;95406.59;5093188;28;20684;-66
2021/12/09 02:03:05;;;;;;;4.23;2.97;;;;;;;2.79;100.00;95406.91;5092987;28;20191;-67
2021/12/09 02:05:31;;;;;;;4.80;3.20;;;;;;;2.75;100.00;95424.66;5092182;28;20192;-67
2021/12/09 02:07:56;;;;;;;4.03;3.40;;;;;;;2.90;100.00;95424.31;5092930;28;20181;-67
2021/12/09 02:10:22;;;;;;;5.03;3.60;;;;;;;2.72;100.00;95432.84;5092917;28;20184;-66
2021/12/09 02:12:49;;;;;;;3.87;2.80;;;;;;;2.70;100.00;95440.00;5093158;28;20303;-66
2021/12/09 02:15:20;;;;;;;5.40;3.90;;;;;;;2.86;100.00;95433.50;5092938;28;20294;-66
2021/12/09 02:17:46;;;;;;;10.23;3.80;;;;;;;2.86;100.00;95439.47;5093034;28;20177;-67
2021/12/09 02:20:12;;;;;;;9.93;3.70;;;;;;;2.86;100.00;95444.66;5092872;28;20526;-67
2021/12/09 02:22:37;;;;;;;5.03;3.53;;;;;;;2.73;100.00;95454.31;5092836;28;20185;-67
2021/12/09 02:25:04;;;;;;;6.17;4.30;;;;;;;2.73;100.00;95462.84;5092755;28;20355;-66
2021/12/09 02:27:29;;;;;;;9.13;4.50;;;;;;;2.86;100.00;95467.94;5092736;28;20586;-66
2021/12/09 02:29:56;;;;;;;6.80;4.63;;;;;;;2.72;100.00;95468.25;5094918;28;20271;-66
2021/12/09 02:32:21;;;;;;;10.73;4.20;;;;;;;2.93;100.00;95473.06;5096848;28;20312;-66
2021/12/09 02:34:47;;;;;;;9.33;4.90;;;;;;;2.90;100.00;95476.84;5096551;28;20231;-67
2021/12/09 02:37:14;;;;;;;6.83;4.77;;;;;;;2.98;100.00;95482.78;5096428;28;20549;-67
2021/12/09 02:39:43;;;;;;;7.53;5.03;;;;;;;2.93;100.00;95484.22;5096729;28;20180;-66
2021/12/09 02:42:09;;;;;;;9.20;5.00;;;;;;;2.89;100.00;95482.25;5096300;28;20269;-66
2021/12/09 02:44:34;;;;;;;8.13;4.53;;;;;;;2.96;100.00;95483.00;5095544;28;20265;-67
2021/12/09 02:47:00;;;;;;;9.93;5.30;;;;;;;2.98;100.00;95475.03;5096796;28;20189;-66
2021/12/09 02:49:28;;;;;;;8.90;5.17;;;;;;;2.81;100.00;95480.72;5096171;28;20725;-67
2021/12/09 02:51:55;;;;;;;8.80;4.47;;;;;;;2.74;100.00;95474.00;5095786;28;20206;-67
2021/12/09 02:54:22;;;;;;;6.97;4.87;;;;;;;2.66;100.00;95469.09;5096184;28;20189;-66
2021/12/09 02:56:50;;;;;;;10.93;5.17;;;;;;;2.81;100.00;95462.59;5096096;28;20200;-66
2021/12/09 02:59:16;;;;;;;8.00;4.90;;;;;;;2.85;100.00;95463.75;5096003;28;20184;-66
2021/12/09 03:01:57;;;;;;;12.73;4.80;;;;;;;2.83;100.00;95457.22;5096542;28;20214;-66
2021/12/09 03:04:24;;;;;;;7.73;4.67;;;;;;;2.79;100.00;95456.03;5096275;28;20165;-66
2021/12/09 03:06:53;;;;;;;7.67;4.40;;;;;;;2.72;100.00;95463.88;5094308;28;20176;-66
2021/12/09 03:09:19;;;;;;;6.13;4.30;;;;;;;2.67;100.00;95461.13;5096190;28;20177;-66
2021/12/09 03:11:53;;;;;;;10.70;4.20;;;;;;;2.62;100.00;95465.34;5096091;28;20329;-66
2021/12/09 03:14:18;;;;;;;9.13;4.00;;;;;;;2.63;100.00;95454.78;5096283;28;20180;-66
2021/12/09 03:16:44;;;;;;;7.17;3.77;;;;;;;2.54;100.00;95463.78;5096526;28;20606;-66
2021/12/09 03:19:09;;;;;;;7.93;4.13;;;;;;;2.65;100.00;95452.78;5096351;28;20184;-66
2021/12/09 03:21:44;;;;;;;13.20;4.67;;;;;;;2.69;100.00;95450.56;5095522;28;20189;-66
2021/12/09 03:24:14;;;;;;;9.90;4.30;;;;;;;2.67;100.00;95453.38;5095969;28;20183;-66
2021/12/09 03:26:46;;;;;;;12.20;4.57;;;;;;;2.67;100.00;95450.78;5095966;28;20544;-66
2021/12/09 03:29:13;;;;;;;5.93;3.80;;;;;;;2.54;100.00;95450.88;5095974;28;20185;-66
2021/12/09 03:31:42;;;;;;;6.53;3.80;;;;;;;2.56;100.00;95448.09;5095328;28;20664;-66
2021/12/09 03:34:08;;;;;;;9.60;4.30;;;;;;;2.53;100.00;95467.38;5095634;28;20173;-67
2021/12/09 03:36:33;;;;;;;6.00;3.60;;;;;;;2.55;100.00;95469.75;5095676;28;20200;-66
2021/12/09 03:39:03;;;;;;;7.97;3.93;;;;;;;2.54;100.00;95465.59;5096079;28;20176;-66
2021/12/09 03:41:29;;;;;;;6.60;3.77;;;;;;;2.57;100.00;95468.53;5095017;28;20192;-66
2021/12/09 03:43:54;;;;;;;7.13;4.13;;;;;;;2.52;100.00;95476.13;5094994;28;20693;-66
2021/12/09 03:46:20;;;;;;;6.77;4.10;;;;;;;2.64;100.00;95466.72;5095415;28;20213;-67
2021/12/09 03:48:45;;;;;;;8.40;4.03;;;;;;;2.64;100.00;95473.66;5095378;28;20237;-66
2021/12/09 03:51:11;;;;;;;5.97;3.77;;;;;;;2.66;100.00;95477.66;5094799;28;20691;-66
2021/12/09 03:53:37;;;;;;;8.77;4.30;;;;;;;2.75;100.00;95488.53;5100060;28;20181;-66
2021/12/09 03:56:02;;;;;;;7.87;4.50;;;;;;;2.62;100.00;95486.81;5089770;28;20204;-66
2021/12/09 03:58:28;;;;;;;9.03;4.13;;;;;;;2.65;100.00;95489.00;5094697;28;20541;-67
2021/12/09 04:00:53;;;;;;;11.10;4.57;;;;;;;2.78;100.00;95495.88;5095046;28;20232;-66
2021/12/09 04:03:19;;;;;;;8.93;4.43;;;;;;;2.77;100.00;95489.13;5094697;28;20184;-67
2021/12/09 04:05:45;;;;;;;11.37;4.33;;;;;;;2.69;100.00;95491.94;5094941;28;20188;-66
2021/12/09 04:08:11;;;;;;;8.57;4.73;;;;;;;2.75;100.00;95493.69;5095386;28;20223;-66
2021/12/09 04:10:37;;;;;;;15.60;4.73;;;;;;;2.76;100.00;95500.47;5094893;28;20264;-66
2021/12/09 04:13:02;;;;;;;7.10;4.30;;;;;;;2.68;100.00;95493.72;5095328;28;20184;-66
2021/12/09 04:15:28;;;;;;;7.43;4.87;;;;;;;2.68;100.00;95498.91;5094944;28;20665;-66
2021/12/09 04:17:54;;;;;;;7.83;4.00;;;;;;;2.85;100.00;95501.78;5095119;28;20322;-66
2021/12/09 04:20:20;;;;;;;7.57;4.17;;;;;;;2.67;100.00;95494.75;5085761;28;20632;-66
2021/12/09 04:22:48;;;;;;;12.53;4.33;;;;;;;2.76;100.00;95496.06;5110391;28;20226;-66
2021/12/09 04:25:22;;;;;;;8.17;4.63;;;;;;;2.81;100.00;95498.03;5093391;28;20184;-66
2021/12/09 04:27:48;;;;;;;6.90;3.67;;;;;;;2.82;100.00;95503.00;5094678;28;20258;-66
2021/12/09 04:30:15;;;;;;;8.37;4.67;;;;;;;2.92;100.00;95502.53;5095007;28;20196;-66
2021/12/09 04:32:40;;;;;;;7.63;4.73;;;;;;;2.75;100.00;95504.84;5094146;28;20177;-66
2021/12/09 04:35:08;;;;;;;12.23;4.10;;;;;;;2.59;100.00;95494.19;5094393;28;20694;-66
2021/12/09 04:37:34;;;;;;;8.37;3.70;;;;;;;2.65;100.00;95511.47;5094639;28;20258;-66
2021/12/09 04:40:00;;;;;;;12.33;3.57;;;;;;;2.61;100.00;95510.31;5094228;28;20223;-66
2021/12/09 04:42:27;;;;;;;6.47;3.77;;;;;;;2.64;100.00;95520.22;5094314;28;20234;-66
2021/12/09 04:44:53;;;;;;;5.07;3.60;;;;;;;2.72;100.00;95527.75;5094110;28;20188;-67
2021/12/09 04:47:18;;;;;;;5.70;3.63;;;;;;;2.72;100.00;95533.72;5094246;28;20176;-67
2021/12/09 04:49:44;;;;;;;13.83;3.77;;;;;;;2.80;100.00;95535.25;5094002;28;20181;-66
2021/12/09 04:52:09;;;;;;;11.43;3.83;;;;;;;2.80;100.00;95541.22;5091882;28;20195;-66
2021/12/09 04:54:41;;;;;;;7.43;3.67;;;;;;;2.80;100.00;95540.41;5094271;28;20688;-66
2021/12/09 04:57:07;;;;;;;9.97;3.77;;;;;;;2.80;100.00;95546.41;5094183;28;20223;-66
2021/12/09 04:59:33;;;;;;;7.33;3.30;;;;;;;2.79;100.00;95549.97;5091955;28;20212;-66
2021/12/09 05:01:58;;;;;;;9.53;3.57;;;;;;;2.71;100.00;95558.00;5093817;28;20234;-67
2021/12/09 05:04:24;;;;;;;10.40;3.00;;;;;;;2.78;100.00;95557.97;5093626;28;20196;-66
2021/12/09 05:06:49;;;;;;;4.53;2.93;;;;;;;2.79;100.00;95554.34;5091751;28;20180;-66
2021/12/09 05:09:18;;;;;;;7.10;3.40;;;;;;;2.85;100.00;95562.09;5093879;28;20181;-66
2021/12/09 05:11:48;;;;;;;10.77;2.97;;;;;;;2.81;100.00;95566.09;5094101;28;20181;-66
2021/12/09 05:14:19;;;;;;;7.40;3.27;;;;;;;2.85;100.00;95563.88;5094060;28;20204;-67
2021/12/09 05:16:46;;;;;;;7.07;3.33;;;;;;;2.76;100.00;95572.88;5093869;28;20189;-66
2021/12/09 05:19:12;;;;;;;7.33;2.80;;;;;;;2.80;100.00;95584.41;5093692;28;20192;-66
2021/12/09 05:21:39;;;;;;;7.13;2.80;;;;;;;2.80;100.00;95587.78;5093441;28;20264;-66
2021/12/09 05:24:10;;;;;;;9.17;3.10;;;;;;;2.77;100.00;95597.75;5093128;28;20185;-66
2021/12/09 05:26:44;;;;;;;7.17;2.57;;;;;;;2.80;100.00;95603.31;5093536;28;20204;-66
2021/12/09 05:29:09;;;;;;;7.67;2.80;;;;;;;2.81;100.00;95589.38;5093634;28;20189;-66
2021/12/09 05:34:19;;;;;;;8.73;3.50;;;;;;;2.75;100.00;95607.53;5093312;28;20233;-66
2021/12/09 05:36:44;;;;;;;7.70;2.70;;;;;;;2.90;100.00;95597.69;5093191;28;20594;-68
2021/12/09 05:39:11;;;;;;;6.70;2.50;;;;;;;2.90;100.00;95616.59;5093114;28;20743;-66
2021/12/09 05:41:37;;;;;;;4.13;2.43;;;;;;;2.89;100.00;95614.22;5092985;28;20180;-66
2021/12/09 05:44:04;;;;;;;4.00;2.47;;;;;;;2.96;100.00;95624.50;5093083;28;20227;-66
2021/12/09 05:46:32;;;;;;;6.80;2.77;;;;;;;2.88;100.00;95618.59;5093623;28;20181;-66
2021/12/09 05:48:57;;;;;;;7.70;2.50;;;;;;;2.99;100.00;95624.91;5093087;28;20643;-66
2021/12/09 05:51:23;;;;;;;5.30;2.33;;;;;;;3.01;100.00;95620.31;5092964;28;20181;-66
2021/12/09 05:53:50;;;;;;;6.93;2.57;;;;;;;3.13;100.00;95620.44;5091447;28;20188;-66
2021/12/09 05:56:15;;;;;;;6.03;2.40;;;;;;;2.98;100.00;95617.34;5093225;28;20628;-66
2021/12/09 05:58:40;;;;;;;7.80;2.50;;;;;;;2.93;100.00;95620.56;5092854;28;20176;-66
2021/12/09 06:01:06;;;;;;;10.17;2.60;;;;;;;2.87;100.00;95623.97;5092874;28;20228;-66
2021/12/09 06:03:31;;;;;;;4.50;2.30;;;;;;;2.88;100.00;95626.38;5071692;28;20622;-66
2021/12/09 06:05:57;;;;;;;5.67;2.47;;;;;;;2.82;100.00;95621.22;5073985;28;20302;-65
2021/12/09 06:08:22;;;;;;;3.87;2.03;;;;;;;2.84;100.00;95627.75;5084963;28;20191;-65
2021/12/09 06:10:48;;;;;;;6.80;2.40;;;;;;;2.93;100.00;95623.94;5078167;28;20642;-65
2021/12/09 06:13:15;;;;;;;7.70;2.83;;;;;;;2.81;99.51;95624.81;5090404;28;20267;-65
2021/12/09 06:15:41;;;;;;;8.03;2.27;;;;;;;2.79;100.00;95626.78;5093013;28;20200;-65
2021/12/09 06:18:06;;;;;;;6.17;2.30;;;;;;;2.76;99.84;95633.19;5091453;28;20177;-65
2021/12/09 06:20:32;;;;;;;3.37;1.97;;;;;;;2.75;99.88;95638.56;5092859;28;20381;-65
2021/12/09 06:22:57;;;;;;;6.60;2.27;;;;;;;2.87;100.00;95629.94;5093024;28;20544;-65
2021/12/09 06:25:23;;;;;;;3.70;2.70;;;;;;;2.81;100.00;95635.94;5092435;28;20184;-66
2021/12/09 06:27:50;;;;;;;5.33;2.03;;;;;;;2.85;99.52;95628.56;5091946;28;20641;-66
2021/12/09 06:30:18;;;;;;;9.03;2.83;;;;;;;2.83;99.42;95633.97;5108170;28;20618;-66
2021/12/09 06:32:43;;;;;;;7.60;2.40;;;;;;;2.76;100.00;95633.19;5092857;28;20177;-66
2021/12/09 06:35:09;;;;;;;6.63;2.50;;;;;;;2.85;100.00;95628.56;5108097;28;20207;-65
2021/12/09 06:37:39;;;;;;;3.87;2.27;;;;;;;2.77;99.91;95628.81;5092137;28;20633;-66
2021/12/09 06:40:06;;;;;;;4.23;2.30;;;;;;;2.69;100.00;95627.25;5092546;28;20625;-66
2021/12/09 06:42:32;;;;;;;10.67;2.60;;;;;;;2.67;100.00;95624.09;5092708;28;20181;-66
2021/12/09 06:44:57;;;;;;;5.73;2.07;;;;;;;2.59;100.00;95619.13;5091146;28;20207;-66
2021/12/09 06:47:22;;;;;;;4.00;2.27;;;;;;;2.71;100.00;95627.03;5092321;28;20189;-66
2021/12/09 06:49:48;;;;;;;4.23;2.10;;;;;;;2.61;100.00;95619.72;5092520;28;20200;-66
2021/12/09 06:52:14;;;;;;;2.57;2.23;;;;;;;2.74;99.33;95616.28;5091069;28;20197;-66
2021/12/09 06:54:39;;;;;;;5.10;2.43;;;;;;;2.75;100.00;95616.06;5092560;28;20633;-65
2021/12/09 06:57:05;;;;;;;4.33;2.00;;;;;;;2.84;99.08;95617.41;5092197;28;20189;-66
2021/12/09 06:59:30;;;;;;;6.17;2.30;;;;;;;2.70;98.35;95620.28;5092113;28;20588;-65
2021/12/09 07:01:56;;;;;;;5.23;2.60;;;;;;;2.73;99.44;95618.06;5092692;28;20253;-67
2021/12/09 07:04:21;;;;;;;6.67;2.43;;;;;;;2.76;99.07;95628.00;5092039;28;20185;-65
2021/12/09 07:06:46;;;;;;;6.47;2.40;;;;;;;2.78;98.61;95620.84;5091799;28;20199;-65
2021/12/09 07:09:13;;;;;;;2.13;2.00;;;;;;;2.94;96.91;95632.50;5092321;28;20184;-65
2021/12/09 07:11:44;;;;;;;2.33;2.13;;;;;;;2.72;97.20;95629.44;5092186;28;20238;-66
2021/12/09 07:14:09;;;;;;;3.07;2.30;;;;;;;2.81;96.38;95630.78;5091937;28;20264;-65
2021/12/09 07:16:34;;;;;;;2.23;2.00;;;;;;;2.86;96.04;95628.34;5095199;28;20272;-67
2021/12/09 07:19:00;;;;;;;8.33;2.47;;;;;;;2.99;95.20;95635.28;5095653;28;20181;-65
2021/12/09 07:21:25;;;;;;;2.70;1.90;;;;;;;2.90;95.41;95636.50;5096115;28;20185;-65
2021/12/09 07:23:51;;;;;;;7.70;2.30;;;;;;;2.96;95.09;95642.63;5095090;28;20188;-65
2021/12/09 07:26:16;;;;;;;3.87;2.40;;;;;;;2.94;96.25;95640.28;5095465;28;20188;-65
2021/12/09 07:28:41;;;;;;;5.67;2.17;;;;;;;2.83;97.44;95640.94;5095841;28;20188;-66
2021/12/09 07:31:07;;;;;;;4.00;2.50;;;;;;;2.97;97.68;95642.44;5095661;28;20181;-65
2021/12/09 07:33:32;;;;;;;5.03;2.20;;;;;;;3.13;97.05;95646.31;5095237;28;20192;-65
2021/12/09 07:35:58;;;;;;;6.23;2.57;;;;;;;3.20;97.04;95649.69;5095705;28;20279;-65
2021/12/09 07:38:23;;;;;;;3.53;2.20;;;;;;;3.12;97.44;95648.13;5095135;28;20269;-65
2021/12/09 07:40:49;;;;;;;3.40;2.00;;;;;;;2.95;98.35;95661.78;5095168;28;20180;-66
2021/12/09 07:43:14;;;;;;;4.00;2.37;;;;;;;2.96;97.44;95660.75;5095192;28;20180;-66
2021/12/09 07:45:40;;;;;;;2.90;2.37;;;;;;;3.00;97.97;95657.56;5093953;28;20189;-66
2021/12/09 07:48:05;;;;;;;6.40;2.50;;;;;;;3.03;98.03;95659.72;5095173;28;20181;-64
2021/12/09 07:50:31;;;;;;;4.70;2.53;;;;;;;3.14;96.98;95668.63;5094608;28;20181;-64
2021/12/09 07:52:58;;;;;;;3.80;2.70;;;;;;;3.11;96.74;95666.47;5095169;28;20181;-65
2021/12/09 07:55:25;;;;;;;2.50;2.30;;;;;;;3.04;97.31;95663.09;5095095;28;20253;-64
2021/12/09 07:57:51;;;;;;;7.83;2.50;;;;;;;3.16;96.45;95664.84;5095101;28;20542;-64
2021/12/09 08:00:23;;;;;;;5.47;2.93;;;;;;;3.27;95.23;95661.59;5094320;28;20220;-65
2021/12/09 08:02:50;;;;;;;4.67;2.53;;;;;;;3.32;94.68;95672.13;5094280;28;20185;-65
2021/12/09 08:05:17;;;;;;;4.47;2.90;;;;;;;3.16;96.27;95669.22;5089749;28;20799;-65
2021/12/09 08:07:42;;;;;;;7.30;2.80;;;;;;;3.31;94.76;95672.31;5094054;28;20188;-66
2021/12/09 08:10:10;;;;;;;4.57;2.43;;;;;;;3.20;94.85;95676.38;5094465;28;20184;-64
2021/12/09 08:12:36;;;;;;;4.10;2.70;;;;;;;2.99;97.03;95679.25;5085486;28;20180;-65
2021/12/09 08:15:04;;;;;;;6.53;2.70;;;;;;;3.27;95.90;95684.09;5094002;28;20253;-65
2021/12/09 08:20:05;;;;;;;6.83;2.90;;;;;;;3.24;95.31;95684.50;5093527;28;20184;-66
2021/12/09 08:22:35;;;;;;;6.10;2.90;;;;;;;3.35;95.33;95689.00;5094186;28;20267;-67
2021/12/09 08:25:01;;;;;;;3.10;2.80;;;;;;;3.24;96.82;95687.09;5094190;28;20188;-65
2021/12/09 08:27:28;;;;;;;5.73;2.80;;;;;;;3.07;97.15;95691.94;5093882;28;20180;-68
2021/12/09 08:29:54;;;;;;;2.60;2.40;;;;;;;3.43;95.71;95686.19;5092525;28;20284;-69
2021/12/09 08:32:20;;;;;;;4.67;2.50;;;;;;;3.35;96.20;95689.81;5093603;28;20280;-67
2021/12/09 08:34:45;;;;;;;6.23;2.90;;;;;;;3.41;96.46;95688.19;5091904;28;20919;-67
2021/12/09 08:37:11;;;;;;;6.13;2.92;;;;;;;3.48;96.08;95688.16;5090887;28;20490;-66
2021/12/09 08:39:37;;;;;;;6.57;3.13;;;;;;;3.65;94.96;95695.22;5092308;28;20394;-67
2021/12/09 08:42:03;;;;;;;5.53;2.72;;;;;;;3.61;94.80;95695.84;5092109;28;20408;-66
2021/12/09 08:44:28;;;;;;;4.55;2.67;;;;;;;3.75;94.32;95692.94;5092890;28;20439;-66
2021/12/09 08:46:54;;;;;;;6.13;2.85;;;;;;;3.73;95.18;95700.13;5087493;28;20401;-67
2021/12/09 08:49:20;;;;;;;3.80;2.93;;;;;;;3.81;94.38;95712.03;5090904;28;20801;-66
2021/12/09 08:51:45;;;;;;;5.47;2.90;;;;;;;3.86;94.12;95709.59;5092405;28;20412;-67
2021/12/09 08:54:11;;;;;;;5.53;2.92;;;;;;;4.01;93.39;95706.72;5092420;28;20408;-66
2021/12/09 08:56:37;;;;;;;4.57;2.63;;;;;;;3.87;93.30;95703.41;5092078;28;20489;-68
2021/12/09 08:59:04;;;;;;;5.50;2.95;;;;;;;4.11;91.20;95714.81;5091278;28;20398;-67
2021/12/09 09:01:31;;;;;;;3.10;2.45;;;;;;;4.19;90.28;95722.28;5092863;28;20402;-67
2021/12/09 09:03:57;;;;;;;7.03;2.90;;;;;;;4.11;91.12;95715.59;5091305;28;20397;-68
2021/12/09 09:06:22;;;;;;;4.07;2.87;;;;;;;4.21;90.35;95717.69;5091745;28;20392;-68
2021/12/09 09:08:51;;;;;;;4.10;2.60;;;;;;;4.09;91.33;95725.38;5092016;28;20769;-68
2021/12/09 09:11:17;;;;;;;4.20;2.88;;;;;;;4.19;89.76;95722.28;5092024;28;20796;-68
2021/12/09 09:13:42;;;;;;;4.28;2.80;;;;;;;4.41;88.75;95730.47;5088870;28;20394;-70
2021/12/09 09:16:08;;;;;;;3.13;2.63;;;;;;;4.48;88.15;95736.41;5092167;28;20405;-67
2021/12/09 09:18:33;;;;;;;4.18;2.88;;;;;;;4.39;89.06;95735.91;5092310;28;20394;-67
2021/12/09 09:20:59;;;;;;;4.70;2.90;;;;;;;4.25;89.09;95744.00;5092125;28;20394;-68
2021/12/09 09:23:25;;;;;;;4.53;2.80;;;;;;;4.46;89.20;95743.59;5091615;28;20469;-67
2021/12/09 09:25:51;;;;;;;3.55;2.72;;;;;;;4.42;88.75;95745.84;5091730;28;20390;-68
2021/12/09 09:28:18;;;;;;;5.85;3.10;;;;;;;4.49;89.67;95740.59;5092104;28;20469;-67
2021/12/09 09:30:52;;;;;;;4.15;2.70;;;;;;;4.55;88.70;95745.72;5092691;28;20386;-68
2021/12/09 09:33:21;;;;;;;5.32;3.08;;;;;;;4.63;88.02;95742.03;5091708;28;20800;-67
2021/12/09 09:35:46;;;;;;;4.17;2.87;;;;;;;4.47;89.03;95740.00;5092110;28;20531;-66
2021/12/09 09:38:12;;;;;;;5.13;3.23;;;;;;;4.51;89.44;95741.19;5091023;28;20473;-67
2021/12/09 09:40:49;;;;;;;4.80;2.70;;;;;;;4.75;87.94;95739.53;5091521;28;20405;-67
2021/12/09 09:44:12;;;;;;;5.82;3.15;;;;;;;4.70;87.99;95749.78;5091373;28;20389;-67
2021/12/09 09:46:05;;;;;;;4.93;2.92;;;;;;;4.48;89.33;95751.97;5084257;28;20480;-67
2021/12/09 09:48:32;;;;;;;3.45;2.90;;;;;;;4.76;88.16;95756.69;5081099;28;20395;-67
2021/12/09 09:50:58;;;;;;;6.68;3.22;;;;;;;4.71;89.40;95756.56;5085324;28;20485;-68
2021/12/09 09:53:24;;;;;;;5.72;3.10;;;;;;;4.72;88.49;95758.94;5091764;28;20473;-67
2021/12/09 09:55:49;;;;;;;5.15;3.00;;;;;;;4.49;88.93;95761.34;5091645;28;20543;-67
2021/12/09 09:58:16;;;;;;;3.63;3.00;;;;;;;4.68;88.54;95767.38;5091379;28;20805;-67
2021/12/09 10:00:42;;;;;;;5.90;3.40;;;;;;;4.78;88.19;95770.25;5091495;28;20594;-66
2021/12/09 10:03:16;;;;;;;7.10;3.30;;;;;;;4.65;88.71;95757.41;5091137;28;20394;-68
2021/12/09 10:05:43;;;;;;;3.60;2.90;;;;;;;4.73;88.44;95762.34;5105030;28;20462;-68
2021/12/09 10:08:09;;;;;;;4.28;3.08;;;;;;;4.65;88.06;95763.38;5090531;28;20404;-69
2021/12/09 10:10:34;;;;;;;6.18;3.17;;;;;;;4.68;88.03;95762.19;5075794;28;20393;-67
2021/12/09 10:13:06;;;;;;;3.97;2.90;;;;;;;4.54;88.48;95758.91;5091282;28;20735;-67
2021/12/09 10:15:36;;;;;;;4.00;3.30;;;;;;;4.66;88.26;95751.22;5091464;28;20483;-67
2021/12/09 10:18:02;;;;;;;4.57;3.13;;;;;;;4.77;88.51;95759.09;5089696;28;20770;-67
2021/12/09 10:20:43;;;;;;;4.28;3.25;;;;;;;4.90;87.81;95761.53;5100725;28;20866;-67
2021/12/09 10:23:31;;;;;;;4.88;3.30;;;;;;;4.96;87.16;95765.06;5091335;28;20926;-67
2021/12/09 10:26:16;;;;;;;4.10;3.20;;;;;;;4.97;87.77;95769.25;5074766;28;20806;-67
2021/12/09 10:28:49;;;;;;;4.60;3.05;;;;;;;5.06;88.29;95765.38;5091127;28;20515;-67
2021/12/09 10:31:36;;;;;;;4.05;3.05;;;;;;;5.24;87.36;95762.75;5091612;28;20406;-67
2021/12/09 10:34:36;;;;;;;5.53;3.05;;;;;;;5.26;86.79;95765.13;5091039;28;20468;-67
2021/12/09 10:37:02;;;;;;;4.07;3.00;;;;;;;5.51;86.39;95762.44;5087955;28;20410;-67
2021/12/09 10:39:30;;;;;;;3.10;2.80;;;;;;;5.43;85.68;95766.13;5079505;28;20867;-67
2021/12/09 10:41:58;;;;;;;3.25;2.80;;;;;;;5.36;84.71;95765.41;5095304;28;20408;-68
2021/12/09 10:44:37;;;;;;;3.38;2.78;;;;;;;5.22;86.95;95762.19;5090221;28;20382;-67
2021/12/09 10:47:13;;;;;;;3.88;2.53;;;;;;;5.35;87.19;95769.81;5090348;28;20390;-67
2021/12/09 10:50:03;;;;;;;4.13;2.70;;;;;;;5.33;86.26;95760.66;5090721;28;20398;-68
2021/12/09 10:52:39;;;;;;;3.50;2.65;;;;;;;5.58;87.12;95765.72;5090602;28;20386;-67
2021/12/09 10:55:27;;;;;;;3.85;2.83;;;;;;;5.58;85.63;95760.53;5094524;28;20386;-67
2021/12/09 10:58:04;;;;;;;4.13;2.58;;;;;;;5.60;85.54;95763.72;5094278;28;20389;-68
2021/12/09 11:00:34;;;;;;;3.03;2.50;;;;;;;5.59;85.04;95756.91;5094641;28;20496;-66
2021/12/09 11:03:07;;;;;;;3.95;2.65;;;;;;;5.55;84.66;95761.78;5094727;28;20439;-66
2021/12/09 11:05:36;;;;;;;4.30;2.70;;;;;;;5.66;83.46;95761.03;5094133;28;20402;-66
2021/12/09 11:08:27;;;;;;;4.72;2.85;;;;;;;5.68;83.29;95760.81;5094981;28;20467;-67
2021/12/09 11:11:05;;;;;;;4.25;2.58;;;;;;;5.57;84.56;95756.38;5085145;28;20394;-67
2021/12/09 11:13:39;;;;;;;3.85;2.50;;;;;;;5.91;82.38;95755.69;5094040;28;20851;-68
2021/12/09 11:16:06;;;;;;;2.72;2.40;;;;;;;5.69;83.67;95749.38;5093917;28;20409;-67
2021/12/09 11:18:42;;;;;;;2.78;2.35;;;;;;;5.97;83.18;95754.00;5094800;28;20482;-68
2021/12/09 11:21:29;;;;;;;3.45;2.53;;;;;;;6.08;81.80;95756.63;5093127;28;20409;-67
2021/12/09 11:24:17;;;;;;;3.20;2.47;;;;;;;6.15;81.40;95754.72;5076503;28;20434;-67
2021/12/09 11:26:56;;;;;;;4.28;2.28;;;;;;;6.27;79.96;95752.16;5084401;28;20390;-68
2021/12/09 11:29:30;;;;;;;2.83;2.10;;;;;;;5.79;82.35;95747.84;5092674;28;20402;-67
2021/12/09 11:32:19;;;;;;;4.20;2.72;;;;;;;5.80;83.17;95735.63;5092864;28;20409;-67
2021/12/09 11:34:57;;;;;;;4.18;2.30;;;;;;;6.07;81.46;95733.47;5087985;28;20473;-67
2021/12/09 11:40:16;;;;;;;2.50;2.30;;;;;;;6.05;80.88;95725.88;5093365;28;20402;-68
2021/12/09 11:42:50;;;;;;;2.80;2.13;;;;;;;5.82;81.66;95723.19;5094331;28;20726;-67
2021/12/09 11:45:21;;;;;;;2.40;1.90;;;;;;;5.60;82.14;95719.53;5094028;28;20435;-68
2021/12/09 11:47:49;;;;;;;3.20;2.10;;;;;;;5.67;80.66;95720.22;5093764;28;20486;-68